createdAt,value
2023-05-19T00:01:00.924Z,97947.41
2023-05-19T00:03:31.420Z,97947.79
2023-05-19T00:06:02.584Z,97946.13
2023-05-19T00:08:32.351Z,97947.33
2023-05-19T00:11:02.090Z,97950.88
2023-05-19T00:13:30.482Z,97953.13
2023-05-19T00:15:59.070Z,97952.83
2023-05-19T00:18:29.939Z,97952.77
2023-05-19T00:20:58.482Z,97949.98
2023-05-19T00:23:26.480Z,97952.30
2023-05-19T00:25:54.500Z,97954.07
2023-05-19T00:28:22.543Z,97954.64
2023-05-19T00:30:51.705Z,97955.27
2023-05-19T00:33:19.860Z,97950.98
2023-05-19T00:35:48.033Z,97954.30
2023-05-19T00:38:16.106Z,97954.77
2023-05-19T00:40:44.697Z,97954.70
2023-05-19T00:43:13.474Z,97954.47
2023-05-19T00:45:41.987Z,97952.80
2023-05-19T00:48:09.997Z,97952.80
2023-05-19T00:50:38.813Z,97959.02
2023-05-19T00:53:08.135Z,97958.48
2023-05-19T00:55:40.564Z,97960.86
2023-05-19T00:58:10.207Z,97962.87
2023-05-19T01:00:39.944Z,97967.20
2023-05-19T01:03:11.897Z,97967.40
2023-05-19T01:05:42.553Z,97966.84
2023-05-19T01:08:11.093Z,97965.48
2023-05-19T01:10:39.263Z,97963.98
2023-05-19T01:13:08.082Z,97970.67
2023-05-19T01:16:07.180Z,97973.80
2023-05-19T01:18:38.309Z,97976.48
2023-05-19T01:21:37.243Z,97972.61
2023-05-19T01:24:34.743Z,97976.46
2023-05-19T01:27:33.840Z,97971.53
2023-05-19T01:30:35.359Z,97970.09
2023-05-19T01:33:08.838Z,97975.95
2023-05-19T01:35:39.430Z,97974.67
2023-05-19T01:38:13.307Z,97978.58
2023-05-19T01:40:42.136Z,97980.74
2023-05-19T01:43:16.286Z,97978.42
2023-05-19T01:45:46.164Z,97975.73
2023-05-19T01:48:15.685Z,97977.34
2023-05-19T01:50:44.523Z,97976.27
2023-05-19T01:53:12.810Z,97970.73
2023-05-19T01:55:51.675Z,97972.58
2023-05-19T01:58:44.847Z,97975.81
2023-05-19T02:01:41.714Z,97972.70
2023-05-19T02:04:16.023Z,97970.15
2023-05-19T02:07:05.796Z,97972.79
2023-05-19T02:10:05.544Z,97968.96
2023-05-19T02:12:40.168Z,97964.16
2023-05-19T02:15:15.921Z,97965.52
2023-05-19T02:17:50.963Z,97966.12
2023-05-19T02:20:19.389Z,97965.69
2023-05-19T02:22:48.321Z,97968.01
2023-05-19T02:25:16.631Z,97966.41
2023-05-19T02:27:44.889Z,97977.17
2023-05-19T02:30:13.038Z,97979.17
2023-05-19T02:32:41.464Z,97983.66
2023-05-19T02:35:11.031Z,97989.19
2023-05-19T02:37:39.953Z,97989.45
2023-05-19T02:40:09.127Z,97988.21
2023-05-19T02:42:37.178Z,97993.85
2023-05-19T02:45:05.751Z,97995.76
2023-05-19T02:47:36.206Z,97998.70
2023-05-19T02:50:06.517Z,98000.69
2023-05-19T02:52:34.573Z,98003.70
2023-05-19T02:55:02.763Z,98001.66
2023-05-19T02:57:31.951Z,97997.97
2023-05-19T03:00:00.339Z,97993.14
2023-05-19T03:02:28.734Z,97990.34
2023-05-19T03:04:57.096Z,97995.34
2023-05-19T03:07:25.595Z,97997.60
2023-05-19T03:09:53.814Z,97999.93
2023-05-19T03:12:22.239Z,97997.33
2023-05-19T03:14:50.813Z,98000.84
2023-05-19T03:17:18.889Z,97998.67
2023-05-19T03:19:47.066Z,98002.45
2023-05-19T03:22:15.329Z,98006.61
2023-05-19T03:24:43.297Z,98006.83
2023-05-19T03:27:12.896Z,98007.50
2023-05-19T03:29:41.489Z,98005.72
2023-05-19T03:32:09.555Z,98006.52
2023-05-19T03:34:37.933Z,98010.73
2023-05-19T03:37:05.864Z,98013.77
2023-05-19T03:39:34.908Z,98012.11
2023-05-19T03:42:03.471Z,98015.48
2023-05-19T03:44:31.543Z,98024.67
2023-05-19T03:47:00.694Z,98026.19
2023-05-19T03:49:49.097Z,98025.68
2023-05-19T03:52:40.513Z,98025.06
2023-05-19T03:55:21.579Z,98019.52
2023-05-19T03:57:49.688Z,98021.84
2023-05-19T04:00:18.442Z,98023.66
2023-05-19T04:02:46.781Z,98019.17
2023-05-19T04:05:15.710Z,98017.99
2023-05-19T04:07:43.787Z,98016.04
2023-05-19T04:10:12.924Z,98015.41
2023-05-19T04:12:41.170Z,98014.57
2023-05-19T04:15:12.098Z,98018.75
2023-05-19T04:17:40.708Z,98022.15
2023-05-19T04:20:10.480Z,98028.48
2023-05-19T04:22:38.491Z,98032.52
2023-05-19T04:25:07.700Z,98032.50
2023-05-19T04:27:39.624Z,98028.55
2023-05-19T04:30:08.613Z,98025.67
2023-05-19T04:32:37.809Z,98022.97
2023-05-19T04:35:07.040Z,98018.20
2023-05-19T04:37:37.544Z,98023.85
2023-05-19T04:40:11.336Z,98023.37
2023-05-19T04:42:43.236Z,98024.98
2023-05-19T04:45:14.356Z,98024.00
2023-05-19T04:47:44.587Z,98024.66
2023-05-19T04:50:13.194Z,98025.33
2023-05-19T04:52:45.928Z,98022.55
2023-05-19T04:55:14.246Z,98022.14
2023-05-19T04:57:43.088Z,98022.77
2023-05-19T05:00:15.502Z,98024.98
2023-05-19T05:03:14.815Z,98030.86
2023-05-19T05:05:43.028Z,98029.84
2023-05-19T05:08:12.208Z,98036.85
2023-05-19T05:10:42.651Z,98036.31
2023-05-19T05:13:11.946Z,98032.02
2023-05-19T05:15:41.274Z,98032.64
2023-05-19T05:18:11.032Z,98030.81
2023-05-19T05:20:39.523Z,98035.06
2023-05-19T05:23:09.754Z,98038.34
2023-05-19T05:25:39.085Z,98042.76
2023-05-19T05:28:07.356Z,98039.71
2023-05-19T05:30:36.567Z,98043.11
2023-05-19T05:33:06.524Z,98040.67
2023-05-19T05:35:38.364Z,98039.05
2023-05-19T05:38:07.262Z,98044.71
2023-05-19T05:40:35.754Z,98045.40
2023-05-19T05:43:04.256Z,98045.71
2023-05-19T05:45:34.308Z,98046.64
2023-05-19T05:48:03.497Z,98051.73
2023-05-19T05:50:32.489Z,98052.20
2023-05-19T05:53:02.074Z,98048.65
2023-05-19T05:55:31.412Z,98044.84
2023-05-19T05:58:02.452Z,98039.48
2023-05-19T06:00:31.583Z,98042.33
2023-05-19T06:03:00.449Z,98042.98
2023-05-19T06:05:28.817Z,98041.67
2023-05-19T06:07:58.125Z,98045.89
2023-05-19T06:10:28.892Z,98049.59
2023-05-19T06:12:57.399Z,98046.02
2023-05-19T06:15:25.571Z,98044.93
2023-05-19T06:18:22.666Z,98048.19
2023-05-19T06:20:51.233Z,98053.38
2023-05-19T06:23:19.353Z,98048.86
2023-05-19T06:25:47.700Z,98047.38
2023-05-19T06:28:16.055Z,98049.85
2023-05-19T06:30:45.036Z,98047.40
2023-05-19T06:33:20.113Z,98049.20
2023-05-19T06:35:48.344Z,98053.61
2023-05-19T06:38:16.809Z,98052.80
2023-05-19T06:40:44.986Z,98052.27
2023-05-19T06:43:12.905Z,98051.70
2023-05-19T06:46:01.700Z,98051.82
2023-05-19T06:48:30.900Z,98048.94
2023-05-19T06:50:59.893Z,98049.84
2023-05-19T06:53:28.329Z,98051.02
2023-05-19T06:55:59.933Z,98052.77
2023-05-19T06:58:32.015Z,98049.83
2023-05-19T07:01:00.645Z,98051.14
2023-05-19T07:03:32.253Z,98054.35
2023-05-19T07:06:00.539Z,98054.06
2023-05-19T07:08:29.652Z,98055.42
2023-05-19T07:10:58.904Z,98059.79
2023-05-19T07:13:27.551Z,98058.77
2023-05-19T07:15:56.499Z,98061.58
2023-05-19T07:18:25.638Z,98060.59
2023-05-19T07:20:54.116Z,98062.08
2023-05-19T07:23:22.276Z,98059.81
2023-05-19T07:25:55.204Z,98053.21
2023-05-19T07:28:23.275Z,98050.80
2023-05-19T07:30:52.133Z,98055.86
2023-05-19T07:33:20.134Z,98053.40
2023-05-19T07:35:48.764Z,98054.52
2023-05-19T07:38:16.841Z,98054.91
2023-05-19T07:40:44.824Z,98056.88
2023-05-19T07:43:13.196Z,98053.59
2023-05-19T07:45:41.346Z,98050.61
2023-05-19T07:48:09.476Z,98052.67
2023-05-19T07:50:37.858Z,98049.46
2023-05-19T07:53:06.053Z,98053.66
2023-05-19T07:55:34.207Z,98050.24
2023-05-19T07:58:02.526Z,98049.82
2023-05-19T08:00:31.017Z,98046.94
2023-05-19T08:03:00.130Z,98048.07
2023-05-19T08:05:30.084Z,98044.08
2023-05-19T08:07:58.067Z,98042.59
2023-05-19T08:10:26.202Z,98040.50
2023-05-19T08:12:54.411Z,98039.30
2023-05-19T08:15:22.521Z,98038.88
2023-05-19T08:17:50.664Z,98042.03
2023-05-19T08:20:19.766Z,98039.33
2023-05-19T08:22:48.044Z,98041.77
2023-05-19T08:25:16.036Z,98044.38
2023-05-19T08:27:43.902Z,98041.30
2023-05-19T08:30:12.722Z,98039.45
2023-05-19T08:32:40.945Z,98035.58
2023-05-19T08:35:09.767Z,98037.64
2023-05-19T08:37:38.775Z,98036.55
2023-05-19T08:40:09.001Z,98040.87
2023-05-19T08:42:37.058Z,98042.20
2023-05-19T08:45:06.019Z,98042.61
2023-05-19T08:47:34.469Z,98049.67
2023-05-19T08:50:07.931Z,98050.62
2023-05-19T08:53:01.656Z,98053.48
2023-05-19T08:55:59.187Z,98060.02
2023-05-19T08:58:28.903Z,98065.25
2023-05-19T09:00:59.974Z,98061.65
2023-05-19T09:03:29.239Z,98056.66
2023-05-19T09:05:57.889Z,98051.62
2023-05-19T09:08:26.046Z,98046.59
2023-05-19T09:10:54.145Z,98040.20
2023-05-19T09:13:22.516Z,98041.37
2023-05-19T09:15:52.966Z,98041.45
2023-05-19T09:18:20.921Z,98045.20
2023-05-19T09:20:49.064Z,98044.11
2023-05-19T09:23:18.381Z,98044.80
2023-05-19T09:25:51.140Z,98039.59
2023-05-19T09:28:33.403Z,98042.19
2023-05-19T09:31:03.213Z,98039.55
2023-05-19T09:33:34.534Z,98037.92
2023-05-19T09:36:06.201Z,98035.58
2023-05-19T09:38:39.501Z,98030.23
2023-05-19T09:41:09.206Z,98025.94
2023-05-19T09:43:37.533Z,98023.06
2023-05-19T09:46:07.574Z,98022.38
2023-05-19T09:48:36.816Z,98019.09
2023-05-19T09:51:08.157Z,98019.85
2023-05-19T09:53:36.710Z,98016.55
2023-05-19T09:56:05.526Z,98013.34
2023-05-19T09:58:37.582Z,98013.38
2023-05-19T10:01:06.458Z,98012.61
2023-05-19T10:03:34.995Z,98007.78
2023-05-19T10:06:05.658Z,98003.27
2023-05-19T10:08:34.457Z,97992.75
2023-05-19T10:11:03.314Z,97989.52
2023-05-19T10:13:35.271Z,97982.25
2023-05-19T10:16:03.922Z,97983.64
2023-05-19T10:18:33.925Z,97979.02
2023-05-19T10:21:03.290Z,97976.06
2023-05-19T10:23:31.230Z,97974.70
2023-05-19T10:26:01.973Z,97970.23
2023-05-19T10:28:37.279Z,97966.53
2023-05-19T10:31:10.025Z,97960.65
2023-05-19T10:34:13.368Z,97958.27
2023-05-19T10:36:48.147Z,97953.96
2023-05-19T10:39:19.401Z,97951.73
2023-05-19T10:41:59.101Z,97949.66
2023-05-19T10:45:02.834Z,97948.98
2023-05-19T10:47:31.352Z,97941.08
2023-05-19T10:50:00.816Z,97941.84
2023-05-19T10:52:31.152Z,97942.47
2023-05-19T10:54:59.236Z,97941.10
2023-05-19T10:57:28.539Z,97941.43
2023-05-19T10:59:57.576Z,97945.15
2023-05-19T11:02:40.229Z,97943.94
2023-05-19T11:05:10.894Z,97945.17
2023-05-19T11:07:43.568Z,97942.27
2023-05-19T11:10:12.537Z,97941.42
2023-05-19T11:12:43.375Z,97947.41
2023-05-19T11:15:15.789Z,97950.39
2023-05-19T11:17:48.654Z,97948.23
2023-05-19T11:20:25.738Z,97947.05
2023-05-19T11:23:09.991Z,97938.36
2023-05-19T11:25:51.732Z,97935.97
2023-05-19T11:28:26.055Z,97931.52
2023-05-19T11:30:57.897Z,97922.33
2023-05-19T11:33:29.292Z,97922.34
2023-05-19T11:36:00.284Z,97918.80
2023-05-19T11:38:30.502Z,97917.53
2023-05-19T11:40:58.696Z,97915.21
2023-05-19T11:43:27.108Z,97912.71
2023-05-19T11:45:56.083Z,97916.57
2023-05-19T11:48:26.526Z,97912.67
2023-05-19T11:50:56.913Z,97910.96
2023-05-19T11:53:25.013Z,97908.39
2023-05-19T11:55:53.440Z,97903.71
2023-05-19T11:58:26.952Z,97906.14
2023-05-19T12:00:55.469Z,97905.66
2023-05-19T12:03:28.794Z,97908.02
2023-05-19T12:05:57.142Z,97898.15
2023-05-19T12:08:25.722Z,97892.27
2023-05-19T12:10:54.392Z,97894.66
2023-05-19T12:13:23.163Z,97891.69
2023-05-19T12:15:53.283Z,97891.10
2023-05-19T12:18:21.677Z,97891.55
2023-05-19T12:20:50.352Z,97891.23
2023-05-19T12:23:19.194Z,97890.36
2023-05-19T12:25:48.422Z,97886.08
2023-05-19T12:28:16.761Z,97887.94
2023-05-19T12:30:48.918Z,97884.42
2023-05-19T12:33:17.377Z,97886.58
2023-05-19T12:35:48.115Z,97883.27
2023-05-19T12:38:16.528Z,97883.41
2023-05-19T12:40:44.854Z,97887.11
2023-05-19T12:43:23.099Z,97885.92
2023-05-19T12:45:51.434Z,97882.15
2023-05-19T12:48:23.198Z,97881.86
2023-05-19T12:50:55.674Z,97877.59
2023-05-19T12:53:27.873Z,97873.56
2023-05-19T12:55:56.015Z,97872.64
2023-05-19T12:58:24.514Z,97876.77
2023-05-19T13:00:59.821Z,97880.32
2023-05-19T13:03:28.308Z,97880.75
2023-05-19T13:05:56.745Z,97885.01
2023-05-19T13:08:24.756Z,97890.55
2023-05-19T13:10:52.958Z,97894.53
2023-05-19T13:13:22.072Z,97890.58
2023-05-19T13:15:50.343Z,97887.13
2023-05-19T13:18:18.949Z,97889.34
2023-05-19T13:20:49.306Z,97890.06
2023-05-19T13:23:17.394Z,97893.20
2023-05-19T13:25:45.764Z,97903.73
2023-05-19T13:28:13.774Z,97925.04
2023-05-19T13:30:44.211Z,97939.23
2023-05-19T13:33:12.674Z,97958.75
2023-05-19T13:35:41.324Z,97962.48
2023-05-19T13:38:10.473Z,97968.52
2023-05-19T13:40:40.233Z,97968.94
2023-05-19T13:43:09.383Z,97982.45
2023-05-19T13:45:37.620Z,97974.70
2023-05-19T13:48:07.540Z,97971.40
2023-05-19T13:50:36.061Z,97970.70
2023-05-19T13:53:04.302Z,97962.06
2023-05-19T13:55:33.360Z,97962.33
2023-05-19T13:58:01.636Z,97965.92
2023-05-19T14:00:31.922Z,97969.26
2023-05-19T14:03:00.583Z,97966.61
2023-05-19T14:05:29.249Z,97964.69
2023-05-19T14:07:58.086Z,97966.12
2023-05-19T14:10:27.001Z,97970.50
2023-05-19T14:13:28.963Z,97967.30
2023-05-19T14:15:44.338Z,97962.30
2023-05-19T14:18:12.471Z,97953.79
2023-05-19T14:20:41.035Z,97959.86
2023-05-19T14:23:09.390Z,97961.18
2023-05-19T14:25:37.565Z,97964.00
2023-05-19T14:28:05.926Z,97961.59
2023-05-19T14:30:34.317Z,97959.08
2023-05-19T14:33:02.904Z,97952.45
2023-05-19T14:35:31.114Z,97953.13
2023-05-19T14:37:59.297Z,97953.91
2023-05-19T14:40:27.363Z,97948.84
2023-05-19T14:42:55.671Z,97947.27
2023-05-19T14:45:24.275Z,97947.01
2023-05-19T14:47:52.796Z,97943.16
2023-05-19T14:50:21.116Z,97945.21
2023-05-19T14:52:49.120Z,97948.52
2023-05-19T14:55:17.131Z,97946.85
2023-05-19T14:57:46.079Z,97946.52
2023-05-19T15:00:14.564Z,97944.97
2023-05-19T15:02:42.787Z,97943.75
2023-05-19T15:05:12.069Z,97940.25
2023-05-19T15:07:40.615Z,97935.75
2023-05-19T15:10:09.131Z,97929.56
2023-05-19T15:12:37.649Z,97923.88
2023-05-19T15:15:06.559Z,97919.58
2023-05-19T15:17:34.505Z,97914.75
2023-05-19T15:20:02.988Z,97911.52
2023-05-19T15:22:31.159Z,97909.92
2023-05-19T15:24:59.480Z,97905.32
2023-05-19T15:27:27.751Z,97907.96
2023-05-19T15:29:56.293Z,97904.66
2023-05-19T15:32:24.460Z,97900.84
2023-05-19T15:34:53.134Z,97897.41
2023-05-19T15:37:21.129Z,97895.26
2023-05-19T15:39:49.521Z,97894.05
2023-05-19T15:42:17.519Z,97891.23
2023-05-19T15:44:46.471Z,97890.65
2023-05-19T15:47:14.668Z,97889.96
2023-05-19T15:49:43.166Z,97889.91
2023-05-19T15:52:11.289Z,97890.28
2023-05-19T15:54:39.217Z,97889.05
2023-05-19T15:57:07.476Z,97890.83
2023-05-19T15:59:35.641Z,97895.41
2023-05-19T16:02:03.938Z,97893.80
2023-05-19T16:04:33.434Z,97896.16
2023-05-19T16:07:01.577Z,97893.73
2023-05-19T16:09:29.556Z,97890.33
2023-05-19T16:11:57.995Z,97894.98
2023-05-19T16:14:29.462Z,97899.61
2023-05-19T16:16:57.588Z,97897.34
2023-05-19T16:19:26.742Z,97898.05
2023-05-19T16:21:55.105Z,97899.27
2023-05-19T16:24:23.172Z,97899.80
2023-05-19T16:26:53.897Z,97901.73
2023-05-19T16:29:22.377Z,97910.60
2023-05-19T16:31:50.538Z,97915.26
2023-05-19T16:34:18.571Z,97920.77
2023-05-19T16:36:46.647Z,97919.42
2023-05-19T16:39:14.689Z,97923.29
2023-05-19T16:41:42.802Z,97925.31
2023-05-19T16:44:14.457Z,97927.52
2023-05-19T16:46:43.096Z,97935.54
2023-05-19T16:49:11.420Z,97940.20
2023-05-19T16:51:39.646Z,97941.02
2023-05-19T16:54:07.798Z,97943.42
2023-05-19T16:56:36.228Z,97945.02
2023-05-19T16:59:04.141Z,97949.77
2023-05-19T17:01:33.034Z,97955.70
2023-05-19T17:04:01.313Z,97956.03
2023-05-19T17:06:29.540Z,97963.42
2023-05-19T17:08:57.759Z,97963.41
2023-05-19T17:11:27.366Z,97965.45
2023-05-19T17:13:55.399Z,97965.48
2023-05-19T17:16:24.148Z,97971.70
2023-05-19T17:18:52.418Z,97975.86
2023-05-19T17:21:20.492Z,97982.64
2023-05-19T17:23:49.619Z,97985.15
2023-05-19T17:26:17.999Z,97986.79
2023-05-19T17:28:46.617Z,97986.26
2023-05-19T17:31:15.976Z,97986.46
2023-05-19T17:33:44.403Z,97988.26
2023-05-19T17:36:12.801Z,97989.79
2023-05-19T17:38:42.174Z,97992.98
2023-05-19T17:41:10.428Z,97994.46
2023-05-19T17:43:40.288Z,97995.48
2023-05-19T17:46:08.913Z,97989.70
2023-05-19T17:48:37.476Z,97993.69
2023-05-19T17:51:07.284Z,97992.04
2023-05-19T17:53:36.592Z,97994.04
2023-05-19T17:56:07.428Z,97996.53
2023-05-19T17:58:36.566Z,97996.52
2023-05-19T18:01:05.485Z,97997.34
2023-05-19T18:03:34.267Z,97999.23
2023-05-19T18:06:02.941Z,97998.52
2023-05-19T18:08:32.458Z,98002.23
2023-05-19T18:11:00.842Z,98005.50
2023-05-19T18:13:29.020Z,98008.27
2023-05-19T18:15:59.338Z,98017.20
2023-05-19T18:18:27.528Z,98019.91
2023-05-19T18:20:55.957Z,98028.17
2023-05-19T18:23:23.971Z,98033.46
2023-05-19T18:25:53.431Z,98033.59
2023-05-19T18:28:21.719Z,98026.81
2023-05-19T18:31:05.131Z,98032.67
2023-05-19T18:33:33.450Z,98034.69
2023-05-19T18:36:01.575Z,98032.30
2023-05-19T18:38:29.764Z,98034.24
2023-05-19T18:40:58.346Z,98033.84
2023-05-19T18:43:27.269Z,98032.16
2023-05-19T18:45:55.488Z,98036.33
2023-05-19T18:48:25.666Z,98037.02
2023-05-19T18:50:54.528Z,98036.61
2023-05-19T18:53:22.835Z,98039.00
2023-05-19T18:55:51.066Z,98040.21
2023-05-19T18:58:19.104Z,98044.09
2023-05-19T19:00:47.394Z,98040.55
2023-05-19T19:03:16.214Z,98042.77
2023-05-19T19:05:45.521Z,98043.50
2023-05-19T19:08:13.936Z,98042.35
2023-05-19T19:10:42.684Z,98043.52
2023-05-19T19:13:11.150Z,98043.60
2023-05-19T19:15:39.788Z,98047.16
2023-05-19T19:18:08.461Z,98052.16
2023-05-19T19:20:36.704Z,98054.95
2023-05-19T19:23:06.892Z,98054.58
2023-05-19T19:25:35.491Z,98053.53
2023-05-19T19:28:03.966Z,98055.08
2023-05-19T19:30:32.395Z,98053.24
2023-05-19T19:33:01.095Z,98055.09
2023-05-19T19:35:29.429Z,98053.95
2023-05-19T19:37:58.848Z,98057.64
2023-05-19T19:40:27.293Z,98059.88
2023-05-19T19:42:55.380Z,98060.02
2023-05-19T19:45:23.613Z,98064.21
2023-05-19T19:47:51.858Z,98067.20
2023-05-19T19:50:20.199Z,98069.91
2023-05-19T19:52:48.480Z,98069.20
2023-05-19T19:55:16.679Z,98071.60
2023-05-19T19:57:47.308Z,98073.30
2023-05-19T20:00:16.382Z,98070.88
2023-05-19T20:03:02.830Z,98073.58
2023-05-19T20:05:31.641Z,98074.31
2023-05-19T20:08:00.105Z,98075.95
2023-05-19T20:10:28.234Z,98074.98
2023-05-19T20:12:58.955Z,98074.82
2023-05-19T20:15:27.237Z,98075.23
2023-05-19T20:17:55.745Z,98076.52
2023-05-19T20:20:24.500Z,98079.23
2023-05-19T20:22:52.406Z,98079.33
2023-05-19T20:25:20.943Z,98075.51
2023-05-19T20:27:49.009Z,98075.11
2023-05-19T20:30:17.294Z,98085.25
2023-05-19T20:32:46.980Z,98089.10
2023-05-19T20:35:15.789Z,98094.59
2023-05-19T20:37:43.974Z,98092.95
2023-05-19T20:40:13.056Z,98091.24
2023-05-19T20:42:41.526Z,98093.15
2023-05-19T20:45:09.934Z,98094.48
2023-05-19T20:47:38.518Z,98093.87
2023-05-19T20:50:07.388Z,98092.30
2023-05-19T20:52:36.234Z,98090.49
2023-05-19T20:55:04.596Z,98090.27
2023-05-19T20:57:32.935Z,98086.44
2023-05-19T21:00:01.197Z,98085.58
2023-05-19T21:02:29.437Z,98087.80
2023-05-19T21:04:57.874Z,98089.48
2023-05-19T21:07:26.405Z,98094.12
2023-05-19T21:09:54.751Z,98096.28
2023-05-19T21:12:25.429Z,98096.70
2023-05-19T21:14:53.637Z,98097.49
2023-05-19T21:17:21.807Z,98100.85
2023-05-19T21:19:50.769Z,98100.13
2023-05-19T21:22:19.418Z,98098.34
2023-05-19T21:24:47.877Z,98097.80
2023-05-19T21:27:16.034Z,98094.95
2023-05-19T21:29:44.015Z,98093.27
2023-05-19T21:32:12.479Z,98096.36
2023-05-19T21:34:40.867Z,98104.11
2023-05-19T21:37:08.891Z,98106.45
2023-05-19T21:39:37.094Z,98109.27
2023-05-19T21:42:06.601Z,98106.55
2023-05-19T21:44:34.795Z,98106.33
2023-05-19T21:47:03.043Z,98110.60
2023-05-19T21:49:31.658Z,98112.20
2023-05-19T21:51:59.995Z,98114.54
2023-05-19T21:54:28.270Z,98113.79
2023-05-19T21:56:56.166Z,98113.50
2023-05-19T21:59:25.002Z,98111.20
2023-05-19T22:01:53.269Z,98114.55
2023-05-19T22:04:22.829Z,98115.73
2023-05-19T22:06:51.304Z,98113.37
2023-05-19T22:09:19.476Z,98117.36
2023-05-19T22:11:47.526Z,98114.83
2023-05-19T22:14:15.939Z,98104.07
2023-05-19T22:16:44.274Z,98104.69
2023-05-19T22:19:12.986Z,98105.89
2023-05-19T22:21:41.457Z,98104.35
2023-05-19T22:24:09.690Z,98102.75
2023-05-19T22:26:38.130Z,98101.63
2023-05-19T22:29:06.403Z,98108.14
2023-05-19T22:31:34.385Z,98114.43
2023-05-19T22:34:02.494Z,98115.47
2023-05-19T22:36:31.545Z,98112.97
2023-05-19T22:38:59.611Z,98114.41
2023-05-19T22:41:27.693Z,98117.40
2023-05-19T22:43:55.776Z,98121.07
2023-05-19T22:46:23.824Z,98123.44
2023-05-19T22:48:52.186Z,98118.06
2023-05-19T22:51:20.382Z,98113.95
2023-05-19T22:53:49.279Z,98117.69
2023-05-19T22:56:17.870Z,98121.98
2023-05-19T22:58:45.852Z,98118.15
2023-05-19T23:01:14.117Z,98119.23
2023-05-19T23:03:43.656Z,98117.77
2023-05-19T23:06:11.687Z,98115.61
2023-05-19T23:08:40.044Z,98120.90
2023-05-19T23:11:08.441Z,98121.73
2023-05-19T23:13:36.401Z,98126.52
2023-05-19T23:16:06.867Z,98130.58
2023-05-19T23:18:34.903Z,98130.30
2023-05-19T23:21:02.921Z,98129.00
2023-05-19T23:23:31.063Z,98125.21
2023-05-19T23:25:59.295Z,98123.86
2023-05-19T23:28:27.447Z,98115.59
2023-05-19T23:30:56.721Z,98111.08
2023-05-19T23:33:25.226Z,98111.50
2023-05-19T23:35:54.549Z,98115.77
2023-05-19T23:38:22.672Z,98119.95
2023-05-19T23:40:51.231Z,98110.69
2023-05-19T23:43:19.495Z,98111.02
2023-05-19T23:45:47.571Z,98109.70
2023-05-19T23:48:15.846Z,98111.71
2023-05-19T23:50:43.943Z,98115.80
2023-05-19T23:53:11.874Z,98115.75
2023-05-19T23:55:40.015Z,98109.77
2023-05-19T23:58:08.316Z,98108.19
